createdAt,value
2022-12-08T00:00:28.782Z,0.30
2022-12-08T00:02:57.929Z,0.30
2022-12-08T00:05:44.030Z,0.50
2022-12-08T00:08:31.631Z,0.30
2022-12-08T00:11:00.370Z,0.30
2022-12-08T00:13:29.012Z,0.20
2022-12-08T00:16:02.076Z,0.20
2022-12-08T00:18:31.026Z,0.20
2022-12-08T00:21:00.344Z,0.20
2022-12-08T00:23:30.450Z,0.20
2022-12-08T00:26:04.603Z,0.20
2022-12-08T00:28:34.541Z,0.10
2022-12-08T00:31:10.017Z,0.10
2022-12-08T00:33:39.575Z,0.10
2022-12-08T00:36:09.277Z,0.10
2022-12-08T00:38:41.113Z,0.00
2022-12-08T00:41:14.750Z,0.10
2022-12-08T00:43:43.713Z,0.10
2022-12-08T00:46:13.495Z,0.00
2022-12-08T00:48:42.385Z,0.00
2022-12-08T00:51:11.362Z,0.00
2022-12-08T00:53:41.869Z,0.00
2022-12-08T00:56:11.186Z,0.00
2022-12-08T00:58:39.847Z,0.00
2022-12-08T01:01:11.659Z,0.00
2022-12-08T01:03:40.679Z,0.00
2022-12-08T01:06:12.274Z,-0.10
2022-12-08T01:08:42.729Z,-0.10
2022-12-08T01:11:13.884Z,-0.10
2022-12-08T01:13:42.554Z,-0.10
2022-12-08T01:16:19.830Z,-0.10
2022-12-08T01:18:48.895Z,-0.10
2022-12-08T01:21:17.873Z,-0.20
2022-12-08T01:23:48.914Z,-0.10
2022-12-08T01:26:19.456Z,-0.20
2022-12-08T01:28:49.232Z,-0.20
2022-12-08T01:31:21.305Z,-0.20
2022-12-08T01:33:50.927Z,-0.30
2022-12-08T01:36:23.554Z,-0.30
2022-12-08T01:38:55.418Z,-0.30
2022-12-08T01:41:26.523Z,-0.30
2022-12-08T01:44:01.174Z,-0.20
2022-12-08T01:46:31.866Z,-0.40
2022-12-08T01:49:07.016Z,-0.40
2022-12-08T01:51:49.254Z,-0.40
2022-12-08T01:54:21.965Z,-0.30
2022-12-08T01:56:58.419Z,-0.40
2022-12-08T01:59:28.513Z,-0.40
2022-12-08T02:01:58.234Z,-0.40
2022-12-08T02:04:27.194Z,-0.40
2022-12-08T02:06:56.896Z,-0.40
2022-12-08T02:09:27.581Z,-0.40
2022-12-08T02:11:58.854Z,-0.40
2022-12-08T02:14:27.851Z,-0.40
2022-12-08T02:17:04.269Z,-0.40
2022-12-08T02:20:00.691Z,-0.40
2022-12-08T02:22:38.586Z,-0.40
2022-12-08T02:25:16.708Z,-0.50
2022-12-08T02:27:53.349Z,-0.40
2022-12-08T02:30:26.129Z,-0.40
2022-12-08T02:33:29.151Z,-0.50
2022-12-08T02:36:08.539Z,-0.50
2022-12-08T02:38:46.815Z,-0.50
2022-12-08T02:41:25.041Z,-0.50
2022-12-08T02:44:02.132Z,-0.50
2022-12-08T02:46:35.939Z,-0.50
2022-12-08T02:49:06.253Z,-0.50
2022-12-08T02:51:37.010Z,-0.50
2022-12-08T02:54:06.218Z,-0.50
2022-12-08T02:56:51.979Z,-0.50
2022-12-08T02:59:43.913Z,-0.50
2022-12-08T03:02:33.210Z,-0.60
2022-12-08T03:05:10.156Z,-0.60
2022-12-08T03:07:46.207Z,-0.60
2022-12-08T03:10:20.390Z,-0.60
2022-12-08T03:12:52.142Z,-0.60
2022-12-08T03:15:22.806Z,-0.60
2022-12-08T03:17:55.121Z,-0.60
2022-12-08T03:20:25.778Z,-0.60
2022-12-08T03:22:58.770Z,-0.60
2022-12-08T03:25:31.947Z,-0.60
2022-12-08T03:28:01.497Z,-0.60
2022-12-08T03:30:33.759Z,-0.60
2022-12-08T03:33:06.017Z,-0.60
2022-12-08T03:35:37.426Z,-0.60
2022-12-08T03:38:10.776Z,-0.60
2022-12-08T03:40:42.689Z,-0.60
2022-12-08T03:43:11.566Z,-0.50
2022-12-08T03:45:40.243Z,-0.50
2022-12-08T03:48:09.285Z,-0.50
2022-12-08T03:50:38.190Z,-0.50
2022-12-08T03:53:08.783Z,-0.50
2022-12-08T03:55:37.917Z,-0.60
2022-12-08T03:58:06.683Z,-0.60
2022-12-08T04:00:37.918Z,-0.60
2022-12-08T04:03:06.631Z,-0.50
2022-12-08T04:05:35.637Z,-0.50
2022-12-08T04:08:04.641Z,-0.60
2022-12-08T04:10:35.189Z,-0.60
2022-12-08T04:13:04.445Z,-0.60
2022-12-08T04:15:34.038Z,-0.60
2022-12-08T04:18:03.055Z,-0.60
2022-12-08T04:20:31.922Z,-0.60
2022-12-08T04:23:00.821Z,-0.50
2022-12-08T04:25:29.750Z,-0.60
2022-12-08T04:27:59.892Z,-0.60
2022-12-08T04:30:29.076Z,-0.60
2022-12-08T04:32:57.939Z,-0.60
2022-12-08T04:35:26.934Z,-0.60
2022-12-08T04:37:55.893Z,-0.60
2022-12-08T04:40:25.363Z,-0.60
2022-12-08T04:42:53.969Z,-0.50
2022-12-08T04:45:24.431Z,-0.60
2022-12-08T04:47:53.231Z,-0.60
2022-12-08T04:50:22.097Z,-0.60
2022-12-08T04:52:51.054Z,-0.60
2022-12-08T04:55:19.899Z,-0.60
2022-12-08T04:57:50.278Z,-0.60
2022-12-08T05:00:20.001Z,-0.60
2022-12-08T05:02:52.020Z,-0.60
2022-12-08T05:05:20.961Z,-0.60
2022-12-08T05:07:50.664Z,-0.60
2022-12-08T05:10:20.473Z,-0.60
2022-12-08T05:12:49.835Z,-0.60
2022-12-08T05:15:19.241Z,-0.70
2022-12-08T05:17:50.035Z,-0.70
2022-12-08T05:20:19.606Z,-0.70
2022-12-08T05:22:48.904Z,-0.70
2022-12-08T05:25:18.604Z,-0.70
2022-12-08T05:27:48.558Z,-0.80
2022-12-08T05:30:18.090Z,-0.80
2022-12-08T05:32:47.455Z,-0.80
2022-12-08T05:35:18.300Z,-0.80
2022-12-08T05:37:47.340Z,-0.70
2022-12-08T05:40:16.726Z,-0.60
2022-12-08T05:42:45.802Z,-0.70
2022-12-08T05:45:15.077Z,-0.60
2022-12-08T05:47:43.862Z,-0.70
2022-12-08T05:50:12.706Z,-0.60
2022-12-08T05:52:42.596Z,-0.60
2022-12-08T05:55:11.802Z,-0.60
2022-12-08T05:57:40.333Z,-0.50
2022-12-08T06:00:10.709Z,-0.40
2022-12-08T06:02:42.461Z,-0.30
2022-12-08T06:05:11.202Z,-0.30
2022-12-08T06:07:39.919Z,-0.30
2022-12-08T06:10:11.001Z,-0.20
2022-12-08T06:12:40.376Z,-0.20
2022-12-08T06:15:12.166Z,-0.20
2022-12-08T06:17:40.883Z,-0.10
2022-12-08T06:20:10.430Z,-0.10
2022-12-08T06:22:39.360Z,-0.10
2022-12-08T06:25:10.522Z,0.00
2022-12-08T06:27:39.089Z,-0.10
2022-12-08T06:30:09.013Z,0.00
2022-12-08T06:32:37.848Z,-0.10
2022-12-08T06:35:07.553Z,0.00
2022-12-08T06:37:36.712Z,-0.10
2022-12-08T06:40:06.321Z,-0.10
2022-12-08T06:42:46.921Z,0.00
2022-12-08T06:45:18.110Z,0.10
2022-12-08T06:47:46.798Z,0.20
2022-12-08T06:50:15.884Z,0.00
2022-12-08T06:52:56.998Z,0.00
2022-12-08T06:58:21.264Z,0.10
2022-12-08T07:00:50.135Z,0.10
2022-12-08T07:03:19.120Z,0.10
2022-12-08T07:05:47.913Z,0.20
2022-12-08T07:08:16.747Z,0.30
2022-12-08T07:10:45.756Z,0.30
2022-12-08T07:13:14.343Z,0.30
2022-12-08T07:15:48.014Z,0.30
2022-12-08T07:18:17.285Z,0.30
2022-12-08T07:20:46.012Z,0.40
2022-12-08T07:23:14.638Z,0.40
2022-12-08T07:25:43.317Z,0.40
2022-12-08T07:28:12.700Z,0.40
2022-12-08T07:30:42.137Z,0.40
2022-12-08T07:33:12.604Z,0.50
2022-12-08T07:35:46.362Z,0.60
2022-12-08T07:38:17.963Z,0.70
2022-12-08T07:40:46.800Z,0.70
2022-12-08T07:43:15.683Z,0.70
2022-12-08T07:45:45.211Z,0.80
2022-12-08T07:48:15.908Z,0.80
2022-12-08T07:50:45.827Z,0.70
2022-12-08T07:53:14.801Z,0.80
2022-12-08T07:55:44.503Z,0.80
2022-12-08T07:58:13.695Z,0.90
2022-12-08T08:00:42.558Z,0.90
2022-12-08T08:03:12.934Z,1.00
2022-12-08T08:05:44.202Z,1.00
2022-12-08T08:08:14.465Z,1.00
2022-12-08T08:10:43.236Z,1.00
2022-12-08T08:13:12.148Z,1.00
2022-12-08T08:15:41.508Z,1.10
2022-12-08T08:18:12.128Z,1.00
2022-12-08T08:20:43.183Z,1.10
2022-12-08T08:23:12.601Z,1.10
2022-12-08T08:25:41.351Z,1.00
2022-12-08T08:28:10.167Z,1.10
2022-12-08T08:30:38.908Z,1.10
2022-12-08T08:33:07.719Z,1.20
2022-12-08T08:35:36.755Z,1.10
2022-12-08T08:38:07.173Z,1.10
2022-12-08T08:40:36.387Z,1.20
2022-12-08T08:43:06.513Z,1.10
2022-12-08T08:45:35.934Z,1.10
2022-12-08T08:48:04.940Z,1.20
2022-12-08T08:50:37.485Z,1.20
2022-12-08T08:53:08.544Z,1.00
2022-12-08T08:55:39.895Z,1.20
2022-12-08T08:58:08.866Z,1.20
2022-12-08T09:00:37.924Z,1.30
2022-12-08T09:03:06.820Z,1.30
2022-12-08T09:05:35.604Z,1.40
2022-12-08T09:08:04.823Z,1.20
2022-12-08T09:10:35.268Z,1.20
2022-12-08T09:13:06.441Z,1.20
2022-12-08T09:15:35.519Z,1.30
2022-12-08T09:18:06.901Z,1.30
2022-12-08T09:20:37.222Z,1.40
2022-12-08T09:23:06.602Z,1.40
2022-12-08T09:25:36.827Z,1.50
2022-12-08T09:28:06.031Z,1.60
2022-12-08T09:30:35.043Z,1.70
2022-12-08T09:33:03.907Z,1.80
2022-12-08T09:35:32.934Z,1.80
2022-12-08T09:38:01.669Z,1.80
2022-12-08T09:40:34.194Z,1.80
2022-12-08T09:43:11.609Z,1.80
2022-12-08T09:45:40.678Z,1.80
2022-12-08T09:48:15.349Z,1.80
2022-12-08T09:50:52.612Z,1.70
2022-12-08T09:53:29.430Z,1.70
2022-12-08T09:56:05.451Z,1.80
2022-12-08T09:58:47.690Z,1.80
2022-12-08T10:01:16.865Z,1.80
2022-12-08T10:03:46.243Z,1.80
2022-12-08T10:06:22.667Z,1.90
2022-12-08T10:09:03.915Z,1.90
2022-12-08T10:11:41.476Z,1.90
2022-12-08T10:14:20.142Z,2.00
2022-12-08T10:16:51.762Z,2.00
2022-12-08T10:19:23.983Z,2.00
2022-12-08T10:21:54.735Z,2.10
2022-12-08T10:24:28.700Z,2.10
2022-12-08T10:26:57.934Z,2.10
2022-12-08T10:29:28.379Z,2.20
2022-12-08T10:32:00.210Z,2.40
2022-12-08T10:34:29.249Z,2.50
2022-12-08T10:37:00.740Z,2.50
2022-12-08T10:39:35.075Z,2.50
2022-12-08T10:42:09.393Z,2.50
2022-12-08T10:44:57.065Z,2.50
2022-12-08T10:47:28.589Z,2.60
2022-12-08T10:50:19.629Z,2.50
2022-12-08T10:52:57.451Z,2.50
2022-12-08T10:55:26.693Z,2.40
2022-12-08T10:57:55.859Z,2.40
2022-12-08T11:00:29.404Z,2.40
2022-12-08T11:03:01.137Z,2.50
2022-12-08T11:05:34.176Z,2.40
2022-12-08T11:08:04.155Z,2.50
2022-12-08T11:10:38.439Z,2.40
2022-12-08T11:13:14.645Z,2.50
2022-12-08T11:15:48.387Z,2.60
2022-12-08T11:18:27.339Z,2.60
2022-12-08T11:21:03.864Z,2.60
2022-12-08T11:23:36.476Z,2.70
2022-12-08T11:26:18.968Z,2.70
2022-12-08T11:28:48.602Z,2.70
2022-12-08T11:31:28.064Z,2.70
2022-12-08T11:33:57.952Z,2.80
2022-12-08T11:36:30.199Z,3.10
2022-12-08T11:39:01.299Z,3.20
2022-12-08T11:41:35.131Z,3.40
2022-12-08T11:44:09.007Z,3.40
2022-12-08T11:46:44.277Z,3.50
2022-12-08T11:49:18.153Z,3.60
2022-12-08T11:51:55.947Z,3.70
2022-12-08T11:54:28.991Z,3.90
2022-12-08T11:57:01.582Z,3.90
2022-12-08T11:59:32.995Z,3.90
2022-12-08T12:02:05.624Z,3.70
2022-12-08T12:04:40.438Z,3.50
2022-12-08T12:07:31.324Z,3.50
2022-12-08T12:10:24.667Z,3.40
2022-12-08T12:13:04.265Z,3.30
2022-12-08T12:16:07.304Z,3.20
2022-12-08T12:18:46.622Z,3.20
2022-12-08T12:21:20.709Z,3.30
2022-12-08T12:23:54.456Z,3.30
2022-12-08T12:26:25.440Z,3.30
2022-12-08T12:28:59.181Z,3.30
2022-12-08T12:31:32.104Z,3.40
2022-12-08T12:34:12.747Z,3.30
2022-12-08T12:36:54.198Z,3.30
2022-12-08T12:39:26.421Z,3.20
2022-12-08T12:42:00.085Z,3.30
2022-12-08T12:44:41.459Z,3.40
2022-12-08T12:47:52.408Z,3.40
2022-12-08T12:50:47.014Z,3.50
2022-12-08T12:53:50.053Z,3.60
2022-12-08T12:56:53.415Z,3.60
2022-12-08T12:59:42.628Z,3.60
2022-12-08T13:02:23.650Z,3.80
2022-12-08T13:05:02.106Z,3.90
2022-12-08T13:07:35.836Z,3.90
2022-12-08T13:10:17.471Z,4.00
2022-12-08T13:12:47.811Z,4.10
2022-12-08T13:15:20.983Z,3.90
2022-12-08T13:17:51.024Z,4.00
2022-12-08T13:20:24.105Z,4.00
2022-12-08T13:23:33.896Z,4.00
2022-12-08T13:26:19.556Z,4.20
2022-12-08T13:29:23.150Z,4.10
2022-12-08T13:31:54.518Z,4.10
2022-12-08T13:34:34.418Z,4.00
2022-12-08T13:37:22.345Z,3.90
2022-12-08T13:40:00.177Z,3.90
2022-12-08T13:42:34.986Z,3.80
2022-12-08T13:45:40.083Z,3.80
2022-12-08T13:49:03.334Z,3.70
2022-12-08T13:57:14.276Z,3.50
2022-12-08T13:59:46.450Z,3.50
2022-12-08T14:02:21.906Z,3.30
2022-12-08T14:07:41.449Z,3.40
2022-12-08T14:10:15.492Z,3.30
2022-12-08T14:12:53.027Z,3.30
2022-12-08T14:15:22.625Z,3.30
2022-12-08T14:17:56.419Z,3.20
2022-12-08T14:20:28.183Z,3.20
2022-12-08T14:22:57.318Z,3.20
2022-12-08T14:25:27.906Z,3.20
2022-12-08T14:28:02.884Z,3.30
2022-12-08T14:30:34.219Z,3.20
2022-12-08T14:33:05.323Z,3.20
2022-12-08T14:35:35.715Z,3.20
2022-12-08T14:38:06.611Z,3.10
2022-12-08T14:40:37.467Z,3.00
2022-12-08T14:43:16.564Z,2.90
2022-12-08T14:45:50.776Z,2.90
2022-12-08T14:48:25.407Z,2.80
2022-12-08T14:51:05.842Z,2.80
2022-12-08T14:53:40.691Z,2.70
2022-12-08T14:56:16.562Z,2.60
2022-12-08T14:58:47.745Z,2.50
2022-12-08T15:01:19.380Z,2.50
2022-12-08T15:03:51.346Z,2.50
2022-12-08T15:06:23.442Z,2.40
2022-12-08T15:08:54.909Z,2.30
2022-12-08T15:11:33.805Z,2.20
2022-12-08T15:14:04.589Z,2.30
2022-12-08T15:16:40.908Z,2.20
2022-12-08T15:19:23.349Z,2.10
2022-12-08T15:21:52.906Z,2.00
2022-12-08T15:24:24.585Z,2.10
2022-12-08T15:26:54.098Z,2.10
2022-12-08T15:29:27.433Z,2.10
2022-12-08T15:31:58.813Z,2.00
2022-12-08T15:34:27.842Z,2.00
2022-12-08T15:36:56.753Z,2.00
2022-12-08T15:39:33.127Z,2.00
2022-12-08T15:42:02.774Z,1.90
2022-12-08T15:44:33.517Z,2.00
2022-12-08T15:47:04.639Z,1.90
2022-12-08T15:49:33.601Z,1.90
2022-12-08T15:52:11.028Z,1.90
2022-12-08T15:54:40.484Z,1.90
2022-12-08T15:57:30.067Z,1.80
2022-12-08T16:09:14.946Z,1.70
2022-12-08T16:12:09.965Z,1.70
2022-12-08T16:17:33.939Z,1.70
2022-12-08T16:20:04.646Z,1.70
2022-12-08T16:25:23.903Z,1.70
2022-12-08T16:28:17.549Z,1.80
2022-12-08T16:30:43.697Z,1.80
2022-12-08T16:33:15.373Z,1.90
2022-12-08T16:35:44.501Z,1.90
2022-12-08T16:38:16.460Z,1.80
2022-12-08T16:41:04.163Z,1.80
2022-12-08T16:43:33.944Z,1.80
2022-12-08T16:46:03.714Z,1.90
2022-12-08T16:48:35.337Z,1.90
2022-12-08T16:51:09.350Z,1.90
2022-12-08T16:53:38.247Z,2.00
2022-12-08T16:56:07.450Z,2.00
2022-12-08T16:58:36.342Z,2.00
2022-12-08T17:01:05.047Z,2.00
2022-12-08T17:03:35.508Z,2.00
2022-12-08T17:06:10.254Z,2.00
2022-12-08T17:08:39.801Z,2.00
2022-12-08T17:11:09.012Z,2.00
2022-12-08T17:13:40.272Z,2.10
2022-12-08T17:16:11.296Z,2.00
2022-12-08T17:18:41.724Z,2.10
2022-12-08T17:21:12.228Z,2.20
2022-12-08T17:23:42.306Z,2.20
2022-12-08T17:26:11.564Z,2.10
2022-12-08T17:29:09.318Z,2.10
2022-12-08T17:31:30.638Z,2.30
2022-12-08T17:34:01.954Z,2.20
2022-12-08T17:36:30.857Z,2.30
2022-12-08T17:39:01.796Z,2.20
2022-12-08T17:41:31.588Z,2.30
2022-12-08T17:44:00.433Z,2.30
2022-12-08T17:46:29.299Z,2.30
2022-12-08T17:48:58.374Z,2.30
2022-12-08T17:51:28.322Z,2.30
2022-12-08T17:53:57.861Z,2.30
2022-12-08T17:56:26.563Z,2.30
2022-12-08T17:58:55.313Z,2.40
2022-12-08T18:01:25.146Z,2.30
2022-12-08T18:03:54.026Z,2.20
2022-12-08T18:06:25.699Z,2.30
2022-12-08T18:08:58.602Z,2.30
2022-12-08T18:11:28.901Z,2.30
2022-12-08T18:13:58.749Z,2.30
2022-12-08T18:16:29.518Z,2.30
2022-12-08T18:18:58.470Z,2.30
2022-12-08T18:21:27.494Z,2.30
2022-12-08T18:23:56.663Z,2.30
2022-12-08T18:26:26.945Z,2.30
2022-12-08T18:28:56.180Z,2.40
2022-12-08T18:31:25.814Z,2.30
2022-12-08T18:33:55.286Z,2.40
2022-12-08T18:36:26.638Z,2.40
2022-12-08T18:38:55.969Z,2.40
2022-12-08T18:41:28.403Z,2.40
2022-12-08T18:43:58.637Z,2.40
2022-12-08T18:46:27.807Z,2.30
2022-12-08T18:48:57.172Z,2.30
2022-12-08T18:51:26.611Z,2.30
2022-12-08T18:53:55.442Z,2.20
2022-12-08T18:56:26.539Z,2.30
2022-12-08T18:59:03.339Z,2.30
2022-12-08T19:01:33.468Z,2.40
2022-12-08T19:06:52.796Z,2.40
2022-12-08T19:09:22.560Z,2.30
2022-12-08T19:11:51.691Z,2.30
2022-12-08T19:14:27.724Z,2.40
2022-12-08T19:16:57.873Z,2.50
2022-12-08T19:19:27.538Z,2.40
2022-12-08T19:21:56.957Z,2.40
2022-12-08T19:24:26.876Z,2.40
2022-12-08T19:26:56.076Z,2.40
2022-12-08T19:29:26.586Z,2.40
2022-12-08T19:31:56.372Z,2.50
2022-12-08T19:34:25.543Z,2.50
2022-12-08T19:36:55.099Z,2.40
2022-12-08T19:39:42.166Z,2.50
2022-12-08T19:42:33.284Z,2.50
2022-12-08T19:45:08.257Z,2.50
2022-12-08T19:47:37.640Z,2.60
2022-12-08T19:50:25.371Z,2.50
2022-12-08T19:52:54.989Z,2.50
2022-12-08T19:55:24.722Z,2.50
2022-12-08T19:57:54.682Z,2.50
2022-12-08T20:00:25.619Z,2.50
2022-12-08T20:02:54.498Z,2.40
2022-12-08T20:05:23.735Z,2.40
2022-12-08T20:07:55.727Z,2.40
2022-12-08T20:10:28.080Z,2.40
2022-12-08T20:13:17.341Z,2.50
2022-12-08T20:15:48.339Z,2.40
2022-12-08T20:18:18.278Z,2.50
2022-12-08T20:20:48.469Z,2.40
2022-12-08T20:23:18.132Z,2.50
2022-12-08T20:25:47.874Z,2.50
2022-12-08T20:28:18.974Z,2.50
2022-12-08T20:30:49.430Z,4.20
2022-12-08T20:33:19.821Z,2.50
2022-12-08T20:35:50.241Z,2.60
2022-12-08T20:38:20.332Z,2.60
2022-12-08T20:40:49.807Z,2.50
2022-12-08T20:43:19.021Z,2.50
2022-12-08T20:45:49.685Z,2.50
2022-12-08T20:48:18.814Z,2.60
2022-12-08T20:50:48.006Z,2.50
2022-12-08T20:53:17.871Z,2.50
2022-12-08T20:55:47.217Z,2.40
2022-12-08T20:58:16.444Z,2.30
2022-12-08T21:00:46.319Z,2.20
2022-12-08T21:03:18.638Z,2.20
2022-12-08T21:05:52.216Z,2.00
2022-12-08T21:08:25.365Z,2.00
2022-12-08T21:10:55.528Z,2.00
2022-12-08T21:13:25.316Z,2.00
2022-12-08T21:15:54.566Z,2.00
2022-12-08T21:18:26.022Z,2.00
2022-12-08T21:21:06.491Z,2.00
2022-12-08T21:23:36.639Z,2.00
2022-12-08T21:26:12.429Z,2.00
2022-12-08T21:28:41.927Z,2.00
2022-12-08T21:31:12.071Z,2.00
2022-12-08T21:33:43.089Z,2.00
2022-12-08T21:36:13.788Z,2.00
2022-12-08T21:38:44.244Z,2.00
2022-12-08T21:41:15.498Z,2.00
2022-12-08T21:43:45.002Z,2.10
2022-12-08T21:46:17.449Z,2.10
2022-12-08T21:48:48.462Z,2.00
2022-12-08T21:51:18.176Z,2.00
2022-12-08T21:53:47.531Z,2.10
2022-12-08T21:56:16.511Z,2.10
2022-12-08T21:58:45.257Z,2.00
2022-12-08T22:01:14.351Z,2.00
2022-12-08T22:03:43.719Z,1.90
2022-12-08T22:06:15.183Z,2.00
2022-12-08T22:08:44.768Z,2.00
2022-12-08T22:11:14.369Z,2.00
2022-12-08T22:13:43.472Z,2.00
2022-12-08T22:16:14.970Z,2.00
2022-12-08T22:18:44.860Z,2.00
2022-12-08T22:21:17.645Z,2.00
2022-12-08T22:23:47.224Z,2.00
2022-12-08T22:26:16.392Z,2.00
2022-12-08T22:28:45.762Z,2.10
2022-12-08T22:31:17.238Z,2.10
2022-12-08T22:33:46.467Z,2.10
2022-12-08T22:36:19.830Z,2.10
2022-12-08T22:38:49.195Z,2.10
2022-12-08T22:41:18.190Z,2.00
2022-12-08T22:43:48.617Z,2.10
2022-12-08T22:46:19.572Z,2.10
2022-12-08T22:48:48.663Z,2.00
2022-12-08T22:51:19.483Z,2.00
2022-12-08T22:53:50.132Z,2.00
2022-12-08T22:56:20.001Z,2.00
2022-12-08T22:58:49.737Z,2.00
2022-12-08T23:01:26.684Z,2.00
2022-12-08T23:03:56.531Z,2.00
2022-12-08T23:06:29.504Z,2.00
2022-12-08T23:09:00.079Z,2.00
2022-12-08T23:11:31.333Z,1.90
2022-12-08T23:14:01.144Z,1.90
2022-12-08T23:16:30.690Z,1.90
2022-12-08T23:19:00.392Z,1.90
2022-12-08T23:21:31.334Z,1.80
2022-12-08T23:24:01.508Z,1.80
2022-12-08T23:26:32.717Z,1.90
2022-12-08T23:29:02.565Z,2.00
2022-12-08T23:31:31.977Z,1.90
2022-12-08T23:34:01.283Z,1.90
2022-12-08T23:36:31.992Z,1.90
2022-12-08T23:39:01.891Z,1.90
2022-12-08T23:41:30.739Z,2.00
2022-12-08T23:43:59.532Z,2.00
2022-12-08T23:46:28.704Z,1.90
2022-12-08T23:48:58.280Z,2.00
2022-12-08T23:51:27.555Z,2.00
2022-12-08T23:53:57.990Z,2.00
2022-12-08T23:56:30.248Z,2.00
2022-12-08T23:59:01.275Z,2.00
